createdAt,value
2022-11-05T00:02:04.511Z,10.57
2022-11-05T00:04:50.003Z,10.52
2022-11-05T00:10:07.479Z,10.40
2022-11-05T00:12:52.781Z,10.40
2022-11-05T00:15:41.740Z,10.42
2022-11-05T00:18:08.426Z,10.44
2022-11-05T00:20:35.058Z,10.46
2022-11-05T00:23:20.827Z,10.47
2022-11-05T00:38:53.059Z,10.49
2022-11-05T00:41:19.745Z,10.50
2022-11-05T00:44:04.904Z,10.51
2022-11-05T00:46:31.590Z,10.51
2022-11-05T00:49:16.925Z,10.51
2022-11-05T00:51:43.583Z,10.46
2022-11-05T00:54:10.156Z,10.41
2022-11-05T00:56:36.783Z,10.42
2022-11-05T00:59:03.474Z,10.44
2022-11-05T01:01:30.231Z,10.45
2022-11-05T01:03:56.961Z,10.46
2022-11-05T01:06:23.372Z,10.41
2022-11-05T01:08:49.686Z,10.35
2022-11-05T01:11:36.929Z,10.32
2022-11-05T01:14:08.113Z,10.22
2022-11-05T01:16:35.032Z,10.16
2022-11-05T01:19:01.742Z,10.13
2022-11-05T01:21:28.129Z,10.12
2022-11-05T01:23:57.012Z,10.11
2022-11-05T01:26:23.338Z,10.14
2022-11-05T01:28:53.188Z,10.19
2022-11-05T01:31:19.859Z,10.18
2022-11-05T01:33:46.176Z,10.13
2022-11-05T01:36:12.582Z,10.15
2022-11-05T01:38:38.926Z,10.14
2022-11-05T01:41:05.414Z,10.16
2022-11-05T01:43:48.778Z,10.16
2022-11-05T01:46:16.113Z,10.17
2022-11-05T01:48:42.444Z,10.18
2022-11-05T01:51:09.808Z,10.19
2022-11-05T01:53:36.194Z,10.25
2022-11-05T01:56:12.959Z,10.26
2022-11-05T01:58:48.673Z,10.28
2022-11-05T02:01:15.762Z,10.27
2022-11-05T02:03:42.475Z,10.27
2022-11-05T02:06:14.491Z,10.28
2022-11-05T02:09:00.193Z,10.27
2022-11-05T02:11:26.868Z,10.25
2022-11-05T02:13:53.546Z,10.19
2022-11-05T02:16:40.787Z,10.17
2022-11-05T02:19:13.686Z,10.14
2022-11-05T02:21:55.529Z,10.15
2022-11-05T02:24:48.321Z,10.16
2022-11-05T02:27:22.106Z,10.15
2022-11-05T02:29:54.843Z,10.10
2022-11-05T02:32:33.576Z,10.09
2022-11-05T02:35:04.202Z,10.06
2022-11-05T02:37:42.515Z,10.05
2022-11-05T02:40:17.212Z,10.05
2022-11-05T02:42:51.363Z,10.05
2022-11-05T02:45:28.257Z,10.05
2022-11-05T02:48:03.910Z,10.07
2022-11-05T02:50:32.103Z,10.06
2022-11-05T02:53:02.876Z,10.04
2022-11-05T02:55:36.853Z,10.01
2022-11-05T02:58:04.377Z,10.01
2022-11-05T03:00:49.556Z,10.02
2022-11-05T03:03:25.824Z,10.06
2022-11-05T03:06:01.260Z,10.04
2022-11-05T03:08:46.367Z,10.05
2022-11-05T03:11:17.942Z,10.06
2022-11-05T03:13:48.175Z,10.05
2022-11-05T03:16:31.507Z,10.06
2022-11-05T03:19:04.561Z,10.09
2022-11-05T03:21:38.622Z,10.08
2022-11-05T03:24:13.852Z,10.10
2022-11-05T03:26:46.710Z,10.11
2022-11-05T03:29:14.523Z,10.11
2022-11-05T03:31:41.074Z,10.15
2022-11-05T03:34:07.842Z,10.14
2022-11-05T03:36:37.650Z,10.14
2022-11-05T03:39:05.397Z,10.13
2022-11-05T03:41:32.211Z,10.12
2022-11-05T03:43:58.900Z,10.11
2022-11-05T03:46:33.006Z,10.14
2022-11-05T03:49:00.285Z,10.12
2022-11-05T03:51:30.044Z,10.11
2022-11-05T03:53:58.239Z,10.09
2022-11-05T03:56:32.078Z,10.08
2022-11-05T03:58:59.390Z,10.08
2022-11-05T04:01:28.249Z,10.06
2022-11-05T04:03:54.909Z,10.03
2022-11-05T04:06:39.880Z,9.99
2022-11-05T04:09:25.275Z,9.98
2022-11-05T04:12:10.539Z,10.02
2022-11-05T04:14:39.637Z,10.02
2022-11-05T04:17:06.314Z,10.01
2022-11-05T04:19:54.182Z,10.02
2022-11-05T04:22:39.610Z,9.99
2022-11-05T04:25:06.233Z,9.99
2022-11-05T04:27:33.046Z,9.99
2022-11-05T04:30:18.130Z,9.99
2022-11-05T04:33:11.390Z,10.00
2022-11-05T04:35:45.021Z,9.96
2022-11-05T04:38:15.321Z,9.97
2022-11-05T04:40:41.955Z,9.99
2022-11-05T04:43:34.704Z,10.03
2022-11-05T04:46:01.322Z,10.05
2022-11-05T04:48:27.919Z,10.05
2022-11-05T04:50:54.450Z,10.06
2022-11-05T04:53:21.061Z,10.09
2022-11-05T04:55:47.595Z,10.11
2022-11-05T04:58:14.312Z,10.11
2022-11-05T05:00:41.002Z,10.09
2022-11-05T05:03:07.789Z,10.09
2022-11-05T05:05:34.541Z,10.05
2022-11-05T05:08:01.852Z,10.01
2022-11-05T05:10:28.353Z,9.95
2022-11-05T05:12:57.319Z,9.89
2022-11-05T05:15:23.915Z,9.86
2022-11-05T05:17:51.702Z,9.88
2022-11-05T05:20:37.093Z,9.89
2022-11-05T05:23:03.729Z,9.84
2022-11-05T05:25:30.563Z,9.83
2022-11-05T05:27:58.136Z,9.79
2022-11-05T05:30:24.941Z,9.70
2022-11-05T05:32:51.700Z,9.71
2022-11-05T05:35:18.243Z,9.75
2022-11-05T05:37:44.923Z,9.79
2022-11-05T05:40:14.203Z,9.80
2022-11-05T05:42:43.445Z,9.83
2022-11-05T05:45:14.614Z,9.82
2022-11-05T05:47:41.353Z,9.80
2022-11-05T05:50:08.203Z,9.81
2022-11-05T05:52:34.860Z,9.79
2022-11-05T05:55:01.365Z,9.79
2022-11-05T05:57:28.207Z,9.81
2022-11-05T05:59:54.868Z,9.80
2022-11-05T06:02:22.870Z,9.81
2022-11-05T06:04:49.591Z,9.82
2022-11-05T06:07:16.190Z,9.80
2022-11-05T06:09:42.825Z,9.79
2022-11-05T06:12:09.550Z,9.79
2022-11-05T06:14:36.079Z,9.80
2022-11-05T06:17:02.835Z,9.80
2022-11-05T06:19:29.736Z,9.76
2022-11-05T06:21:58.283Z,9.76
2022-11-05T06:24:25.054Z,9.78
2022-11-05T06:26:51.821Z,9.77
2022-11-05T06:29:18.497Z,9.78
2022-11-05T06:31:45.140Z,9.75
2022-11-05T06:34:12.840Z,9.73
2022-11-05T06:36:40.256Z,9.68
2022-11-05T06:39:11.089Z,9.59
2022-11-05T06:41:56.867Z,9.59
2022-11-05T06:44:24.459Z,9.57
2022-11-05T06:46:53.478Z,9.50
2022-11-05T06:49:22.376Z,9.49
2022-11-05T06:51:49.231Z,9.48
2022-11-05T06:54:15.933Z,9.50
2022-11-05T06:56:42.774Z,9.51
2022-11-05T06:59:09.382Z,9.53
2022-11-05T07:01:35.950Z,9.59
2022-11-05T07:04:02.373Z,9.69
2022-11-05T07:06:33.021Z,9.78
2022-11-05T07:09:02.159Z,9.81
2022-11-05T07:11:28.482Z,9.82
2022-11-05T07:13:54.783Z,9.80
2022-11-05T07:16:21.082Z,9.81
2022-11-05T07:18:47.441Z,9.79
2022-11-05T07:21:13.747Z,9.78
2022-11-05T07:23:40.047Z,9.78
2022-11-05T07:26:06.399Z,9.81
2022-11-05T07:28:32.708Z,9.80
2022-11-05T07:30:59.108Z,9.83
2022-11-05T07:33:25.762Z,9.88
2022-11-05T07:35:52.059Z,9.84
2022-11-05T07:38:19.242Z,9.79
2022-11-05T07:40:45.530Z,9.80
2022-11-05T07:43:12.135Z,9.81
2022-11-05T07:45:38.725Z,9.80
2022-11-05T07:48:05.288Z,9.83
2022-11-05T07:50:32.461Z,9.86
2022-11-05T07:53:10.274Z,9.85
2022-11-05T07:55:36.819Z,9.83
2022-11-05T07:58:03.226Z,9.79
2022-11-05T08:00:29.723Z,9.76
2022-11-05T08:02:59.623Z,9.73
2022-11-05T08:05:29.010Z,9.76
2022-11-05T08:07:55.527Z,9.79
2022-11-05T08:10:22.515Z,9.75
2022-11-05T08:12:48.837Z,9.77
2022-11-05T08:15:15.125Z,9.85
2022-11-05T08:17:41.982Z,9.90
2022-11-05T08:20:08.645Z,9.92
2022-11-05T08:22:34.946Z,9.98
2022-11-05T08:25:05.662Z,10.03
2022-11-05T08:27:33.211Z,10.06
2022-11-05T08:29:59.566Z,10.07
2022-11-05T08:32:25.906Z,10.12
2022-11-05T08:34:52.200Z,10.12
2022-11-05T08:37:18.502Z,10.09
2022-11-05T08:39:44.847Z,10.09
2022-11-05T08:42:11.426Z,10.12
2022-11-05T08:44:37.735Z,10.17
2022-11-05T08:47:04.033Z,10.20
2022-11-05T08:49:30.361Z,10.14
2022-11-05T08:51:56.673Z,10.17
2022-11-05T08:54:22.980Z,10.21
2022-11-05T08:56:49.538Z,10.22
2022-11-05T08:59:15.846Z,10.25
2022-11-05T09:01:42.247Z,10.26
2022-11-05T09:04:08.711Z,10.24
2022-11-05T09:06:35.014Z,10.23
2022-11-05T09:09:01.320Z,10.20
2022-11-05T09:11:49.564Z,10.17
2022-11-05T09:14:13.907Z,10.05
2022-11-05T09:16:41.877Z,9.98
2022-11-05T09:19:08.213Z,9.92
2022-11-05T09:21:34.650Z,9.88
2022-11-05T09:24:00.945Z,9.89
2022-11-05T09:26:27.358Z,9.95
2022-11-05T09:28:53.964Z,10.00
2022-11-05T09:31:20.333Z,10.04
2022-11-05T09:33:46.614Z,10.08
2022-11-05T09:36:12.935Z,10.15
2022-11-05T09:38:39.258Z,10.23
2022-11-05T09:41:16.826Z,10.27
2022-11-05T09:43:50.697Z,10.31
2022-11-05T09:46:30.154Z,10.30
2022-11-05T09:48:57.686Z,10.26
2022-11-05T09:51:24.450Z,10.27
2022-11-05T09:53:51.282Z,10.32
2022-11-05T09:56:27.461Z,10.31
2022-11-05T09:58:59.822Z,10.35
2022-11-05T10:01:31.411Z,10.38
2022-11-05T10:03:58.556Z,10.40
2022-11-05T10:06:25.624Z,10.47
2022-11-05T10:08:54.695Z,10.52
2022-11-05T10:11:23.953Z,10.52
2022-11-05T10:13:58.540Z,10.44
2022-11-05T10:16:26.370Z,10.42
2022-11-05T10:18:54.243Z,10.45
2022-11-05T10:21:37.796Z,10.46
2022-11-05T10:24:12.113Z,10.57
2022-11-05T10:26:38.438Z,10.62
2022-11-05T10:29:04.713Z,10.71
2022-11-05T10:31:35.662Z,10.83
2022-11-05T10:34:02.561Z,10.92
2022-11-05T10:36:34.004Z,11.00
2022-11-05T10:39:20.593Z,11.04
2022-11-05T10:41:47.077Z,11.02
2022-11-05T10:44:25.413Z,10.99
2022-11-05T10:47:10.265Z,10.96
2022-11-05T10:49:46.033Z,10.94
2022-11-05T10:52:32.011Z,10.92
2022-11-05T10:55:02.310Z,10.96
2022-11-05T10:57:31.602Z,10.98
2022-11-05T11:00:16.595Z,11.04
2022-11-05T11:02:43.256Z,11.08
2022-11-05T11:05:19.981Z,11.09
2022-11-05T11:07:52.162Z,11.13
2022-11-05T11:10:19.299Z,11.13
2022-11-05T11:12:45.593Z,11.18
2022-11-05T11:15:15.903Z,11.13
2022-11-05T11:17:42.226Z,11.07
2022-11-05T11:20:27.194Z,11.07
2022-11-05T11:22:59.619Z,11.11
2022-11-05T11:25:30.333Z,11.16
2022-11-05T11:27:56.697Z,11.18
2022-11-05T11:30:23.033Z,11.18
2022-11-05T11:32:49.420Z,11.21
2022-11-05T11:35:20.495Z,11.23
2022-11-05T11:37:46.792Z,11.23
2022-11-05T11:40:16.034Z,11.24
2022-11-05T11:42:45.341Z,11.28
2022-11-05T11:45:16.026Z,11.25
2022-11-05T11:47:43.039Z,11.24
2022-11-05T11:50:14.085Z,11.25
2022-11-05T11:52:40.381Z,11.28
2022-11-05T11:55:12.793Z,11.24
2022-11-05T11:57:46.323Z,11.15
2022-11-05T12:00:12.868Z,11.15
2022-11-05T12:02:43.190Z,11.09
2022-11-05T12:05:35.961Z,11.13
2022-11-05T12:08:15.579Z,11.12
2022-11-05T12:10:48.961Z,11.07
2022-11-05T12:13:18.226Z,11.00
2022-11-05T12:15:50.422Z,10.94
2022-11-05T12:18:25.959Z,10.90
2022-11-05T12:21:06.349Z,10.90
2022-11-05T12:23:43.667Z,10.89
2022-11-05T12:26:09.925Z,10.92
2022-11-05T12:29:04.537Z,10.95
2022-11-05T12:31:30.814Z,10.98
2022-11-05T12:34:11.713Z,11.04
2022-11-05T12:36:54.339Z,11.12
2022-11-05T12:39:20.598Z,11.15
2022-11-05T12:41:53.103Z,11.09
2022-11-05T12:44:35.739Z,11.07
2022-11-05T12:47:02.044Z,11.10
2022-11-05T12:49:31.130Z,11.15
2022-11-05T12:52:07.274Z,11.19
2022-11-05T12:54:36.558Z,11.18
2022-11-05T12:57:03.629Z,11.17
2022-11-05T12:59:32.349Z,11.12
2022-11-05T13:02:07.868Z,11.10
2022-11-05T13:04:36.631Z,11.05
2022-11-05T13:07:04.100Z,11.05
2022-11-05T13:09:38.625Z,11.05
2022-11-05T13:12:06.605Z,11.06
2022-11-05T13:14:38.003Z,11.07
2022-11-05T13:17:33.671Z,11.10
2022-11-05T13:19:59.905Z,11.13
2022-11-05T13:22:33.026Z,11.17
2022-11-05T13:25:01.088Z,11.18
2022-11-05T13:27:39.507Z,11.22
2022-11-05T13:30:06.809Z,11.24
2022-11-05T13:32:37.247Z,11.24
2022-11-05T13:35:04.561Z,11.23
2022-11-05T13:37:53.750Z,11.22
2022-11-05T13:40:21.121Z,11.16
2022-11-05T13:42:56.445Z,11.13
2022-11-05T13:45:22.695Z,11.09
2022-11-05T13:47:55.047Z,11.04
2022-11-05T13:50:36.598Z,10.96
2022-11-05T13:53:21.676Z,10.82
2022-11-05T13:55:56.754Z,10.78
2022-11-05T13:58:30.092Z,10.76
2022-11-05T14:01:09.259Z,10.62
2022-11-05T14:03:35.704Z,10.58
2022-11-05T14:06:02.984Z,10.61
2022-11-05T14:08:29.269Z,10.58
2022-11-05T14:10:58.558Z,10.57
2022-11-05T14:13:33.938Z,10.62
2022-11-05T14:16:00.202Z,10.65
2022-11-05T14:18:37.056Z,10.65
2022-11-05T14:21:03.976Z,10.67
2022-11-05T14:23:30.653Z,10.69
2022-11-05T14:25:57.718Z,10.74
2022-11-05T14:28:37.593Z,10.75
2022-11-05T14:31:13.040Z,10.83
2022-11-05T14:33:39.542Z,10.82
2022-11-05T14:36:20.809Z,10.83
2022-11-05T14:38:50.816Z,10.82
2022-11-05T14:41:17.163Z,10.81
2022-11-05T14:43:47.704Z,10.74
2022-11-05T14:46:13.993Z,10.70
2022-11-05T14:48:47.403Z,10.68
2022-11-05T14:51:25.801Z,10.70
2022-11-05T14:53:58.074Z,10.65
2022-11-05T14:56:24.377Z,10.64
2022-11-05T14:58:50.678Z,10.67
2022-11-05T15:01:32.452Z,10.68
2022-11-05T15:04:01.997Z,10.70
2022-11-05T15:06:32.523Z,10.75
2022-11-05T15:09:04.871Z,10.82
2022-11-05T15:11:38.310Z,10.85
2022-11-05T15:14:05.637Z,10.87
2022-11-05T15:16:36.871Z,10.87
2022-11-05T15:19:03.293Z,10.88
2022-11-05T15:21:30.922Z,10.89
2022-11-05T15:23:57.302Z,10.89
2022-11-05T15:26:37.349Z,10.90
2022-11-05T15:29:03.773Z,10.90
2022-11-05T15:31:37.362Z,10.84
2022-11-05T15:34:18.985Z,10.81
2022-11-05T15:36:48.322Z,10.70
2022-11-05T15:39:29.449Z,10.58
2022-11-05T15:41:56.467Z,10.46
2022-11-05T15:44:29.815Z,10.40
2022-11-05T15:47:12.402Z,10.33
2022-11-05T15:49:38.744Z,10.22
2022-11-05T15:52:05.057Z,10.09
2022-11-05T15:54:31.953Z,10.05
2022-11-05T15:56:58.694Z,10.04
2022-11-05T15:59:25.922Z,10.04
2022-11-05T16:01:59.756Z,10.02
2022-11-05T16:04:27.348Z,9.95
2022-11-05T16:06:54.427Z,9.86
2022-11-05T16:09:25.436Z,9.76
2022-11-05T16:12:10.590Z,9.70
2022-11-05T16:14:37.018Z,9.57
2022-11-05T16:17:29.688Z,9.46
2022-11-05T16:19:56.163Z,9.45
2022-11-05T16:22:23.655Z,9.44
2022-11-05T16:24:50.040Z,9.40
2022-11-05T16:27:19.605Z,9.40
2022-11-05T16:29:50.385Z,9.39
2022-11-05T16:32:17.303Z,9.26
2022-11-05T16:35:13.141Z,9.13
2022-11-05T16:37:40.895Z,9.07
2022-11-05T16:40:14.294Z,9.00
2022-11-05T16:42:40.960Z,8.96
2022-11-05T16:45:08.089Z,8.99
2022-11-05T16:47:34.530Z,9.01
2022-11-05T16:50:00.927Z,8.96
2022-11-05T16:52:27.260Z,8.96
2022-11-05T16:54:53.797Z,9.00
2022-11-05T16:57:29.656Z,8.98
2022-11-05T16:59:56.847Z,8.95
2022-11-05T17:02:23.287Z,8.94
2022-11-05T17:04:49.694Z,8.89
2022-11-05T17:07:16.013Z,8.84
2022-11-05T17:09:42.324Z,8.80
2022-11-05T17:12:09.350Z,8.76
2022-11-05T17:14:35.702Z,8.72
2022-11-05T17:17:02.045Z,8.64
2022-11-05T17:19:28.359Z,8.60
2022-11-05T17:21:54.718Z,8.55
2022-11-05T17:24:21.233Z,8.52
2022-11-05T17:26:47.611Z,8.47
2022-11-05T17:29:13.990Z,8.45
2022-11-05T17:31:40.567Z,8.44
2022-11-05T17:34:07.168Z,8.45
2022-11-05T17:36:33.519Z,8.44
2022-11-05T17:38:59.890Z,8.37
2022-11-05T17:41:26.269Z,8.36
2022-11-05T17:43:53.256Z,8.35
2022-11-05T17:46:19.808Z,8.31
2022-11-05T17:48:46.353Z,8.30
2022-11-05T17:51:15.046Z,8.28
2022-11-05T17:53:41.509Z,8.26
2022-11-05T17:56:08.622Z,8.23
2022-11-05T17:58:35.074Z,8.22
2022-11-05T18:01:01.581Z,8.18
2022-11-05T18:03:27.937Z,8.14
2022-11-05T18:05:54.251Z,8.11
2022-11-05T18:08:20.629Z,8.08
2022-11-05T18:10:47.016Z,8.09
2022-11-05T18:13:13.717Z,8.08
2022-11-05T18:15:41.414Z,8.00
2022-11-05T18:18:08.152Z,7.96
2022-11-05T18:20:34.458Z,7.97
2022-11-05T18:23:00.784Z,7.93
2022-11-05T18:25:27.125Z,7.88
2022-11-05T18:27:53.447Z,7.90
2022-11-05T18:30:19.873Z,7.97
2022-11-05T18:32:46.384Z,8.00
2022-11-05T18:35:13.383Z,8.03
2022-11-05T18:37:39.921Z,8.03
2022-11-05T18:40:06.565Z,8.00
2022-11-05T18:42:32.862Z,8.00
2022-11-05T18:44:59.182Z,8.03
2022-11-05T18:47:25.560Z,8.02
2022-11-05T18:49:51.883Z,7.98
2022-11-05T18:52:18.258Z,7.97
2022-11-05T18:54:44.636Z,7.97
2022-11-05T18:57:10.958Z,7.95
2022-11-05T18:59:39.510Z,7.99
2022-11-05T19:02:07.148Z,8.03
2022-11-05T19:04:34.913Z,8.02
2022-11-05T19:07:04.854Z,8.02
2022-11-05T19:09:32.451Z,8.01
2022-11-05T19:11:58.849Z,8.00
2022-11-05T19:14:25.188Z,7.99
2022-11-05T19:16:51.535Z,7.98
2022-11-05T19:19:17.898Z,7.99
2022-11-05T19:21:44.394Z,8.02
2022-11-05T19:24:16.748Z,8.03
2022-11-05T19:26:43.614Z,8.07
2022-11-05T19:29:09.977Z,8.08
2022-11-05T19:31:36.817Z,8.09
2022-11-05T19:34:03.265Z,8.08
2022-11-05T19:36:29.967Z,8.04
2022-11-05T19:38:57.414Z,8.00
2022-11-05T19:41:23.811Z,7.98
2022-11-05T19:43:50.314Z,7.96
2022-11-05T19:46:18.912Z,7.97
2022-11-05T19:48:45.565Z,8.02
2022-11-05T19:51:19.664Z,8.04
2022-11-05T19:53:45.998Z,8.09
2022-11-05T19:56:13.788Z,8.11
2022-11-05T19:58:40.236Z,8.12
2022-11-05T20:01:06.649Z,8.13
2022-11-05T20:03:33.048Z,8.11
2022-11-05T20:06:03.505Z,8.13
2022-11-05T20:08:29.934Z,8.10
2022-11-05T20:10:56.331Z,8.09
2022-11-05T20:13:22.911Z,8.08
2022-11-05T20:15:49.356Z,8.09
2022-11-05T20:18:16.454Z,8.07
2022-11-05T20:20:43.493Z,8.07
2022-11-05T20:23:09.822Z,8.03
2022-11-05T20:25:36.147Z,8.00
2022-11-05T20:28:02.732Z,7.98
2022-11-05T20:30:29.075Z,7.98
2022-11-05T20:32:55.855Z,7.99
2022-11-05T20:35:22.896Z,7.96
2022-11-05T20:37:53.784Z,7.92
2022-11-05T20:40:20.592Z,7.98
2022-11-05T20:42:46.889Z,7.96
2022-11-05T20:45:13.590Z,7.95
2022-11-05T20:47:39.936Z,7.97
2022-11-05T20:50:06.660Z,7.91
2022-11-05T20:52:33.282Z,7.90
2022-11-05T20:55:01.003Z,7.87
2022-11-05T20:57:27.323Z,7.86
2022-11-05T20:59:53.721Z,7.88
2022-11-05T21:02:20.168Z,7.88
2022-11-05T21:04:47.434Z,7.88
2022-11-05T21:07:13.740Z,7.85
2022-11-05T21:09:40.177Z,7.89
2022-11-05T21:12:12.439Z,7.88
2022-11-05T21:14:39.098Z,7.93
2022-11-05T21:17:05.747Z,7.90
2022-11-05T21:19:32.477Z,7.88
2022-11-05T21:21:58.838Z,7.81
2022-11-05T21:24:25.145Z,7.82
2022-11-05T21:26:51.510Z,7.82
2022-11-05T21:29:18.030Z,7.85
2022-11-05T21:31:45.103Z,7.86
2022-11-05T21:34:11.477Z,7.86
2022-11-05T21:36:37.890Z,7.82
2022-11-05T21:39:06.663Z,7.81
2022-11-05T21:41:36.826Z,7.79
2022-11-05T21:44:04.121Z,7.76
2022-11-05T21:46:30.752Z,7.77
2022-11-05T21:48:57.093Z,7.82
2022-11-05T21:51:42.189Z,7.85
2022-11-05T21:54:28.048Z,7.84
2022-11-05T21:57:13.163Z,7.88
2022-11-05T21:59:48.638Z,7.88
2022-11-05T22:02:16.456Z,7.91
2022-11-05T22:04:43.762Z,7.94
2022-11-05T22:07:11.050Z,7.97
2022-11-05T22:09:37.398Z,7.95
2022-11-05T22:12:04.386Z,7.93
2022-11-05T22:14:30.913Z,7.93
2022-11-05T22:16:57.433Z,7.91
2022-11-05T22:19:23.957Z,7.93
2022-11-05T22:21:50.335Z,7.95
2022-11-05T22:24:16.749Z,7.93
2022-11-05T22:26:43.310Z,7.95
2022-11-05T22:29:09.788Z,7.97
2022-11-05T22:31:36.878Z,7.98
2022-11-05T22:34:04.215Z,7.97
2022-11-05T22:36:30.554Z,7.96
2022-11-05T22:38:56.849Z,7.94
2022-11-05T22:41:23.244Z,7.98
2022-11-05T22:43:49.600Z,8.00
2022-11-05T22:46:22.482Z,7.96
2022-11-05T22:48:49.129Z,8.01
2022-11-05T22:51:16.690Z,8.03
2022-11-05T22:53:43.201Z,8.00
2022-11-05T22:56:10.338Z,7.99
2022-11-05T22:58:36.802Z,7.99
2022-11-05T23:01:03.779Z,8.04
2022-11-05T23:03:30.384Z,8.04
2022-11-05T23:06:34.578Z,8.04
2022-11-05T23:09:19.699Z,8.05
2022-11-05T23:11:47.182Z,7.99
2022-11-05T23:14:13.507Z,7.93
2022-11-05T23:16:58.752Z,7.92
2022-11-05T23:19:43.822Z,7.91
2022-11-05T23:22:41.891Z,7.93
2022-11-05T23:25:10.452Z,7.91
2022-11-05T23:27:37.501Z,7.91
2022-11-05T23:30:06.194Z,7.88
2022-11-05T23:32:33.438Z,7.86
2022-11-05T23:34:59.891Z,7.86
2022-11-05T23:37:46.036Z,7.87
2022-11-05T23:40:14.827Z,7.91
2022-11-05T23:43:00.445Z,7.88
2022-11-05T23:45:45.406Z,7.86
2022-11-05T23:48:18.059Z,7.85
2022-11-05T23:50:50.588Z,7.83
2022-11-05T23:53:16.942Z,7.87
2022-11-05T23:55:43.295Z,7.90
2022-11-05T23:58:09.934Z,7.92
